sensor_id;sensor_type;location;lat;lon;timestamp;pressure;altitude;pressure_sealevel;temperature;humidity
59487;BME280;45298;54.918;73.504;2023-05-01T00:01:56;100748.81;;;-0.09;60.62
59487;BME280;45298;54.918;73.504;2023-05-01T00:04:25;100739.31;;;-0.13;60.89
59487;BME280;45298;54.918;73.504;2023-05-01T00:06:53;100759.19;;;0.04;60.51
59487;BME280;45298;54.918;73.504;2023-05-01T00:09:22;100723.66;;;-0.16;60.53
59487;BME280;45298;54.918;73.504;2023-05-01T00:11:51;100766.06;;;0.12;60.93
59487;BME280;45298;54.918;73.504;2023-05-01T00:14:20;100769.50;;;0.16;60.70
59487;BME280;45298;54.918;73.504;2023-05-01T00:16:49;100737.44;;;0.05;60.96
59487;BME280;45298;54.918;73.504;2023-05-01T00:19:18;100762.50;;;0.24;60.84
59487;BME280;45298;54.918;73.504;2023-05-01T00:21:46;100767.69;;;0.29;60.53
59487;BME280;45298;54.918;73.504;2023-05-01T00:24:15;100747.72;;;0.23;60.64
59487;BME280;45298;54.918;73.504;2023-05-01T00:26:45;100733.81;;;0.23;60.99
59487;BME280;45298;54.918;73.504;2023-05-01T00:29:13;100737.28;;;0.26;60.95
59487;BME280;45298;54.918;73.504;2023-05-01T00:31:42;100749.34;;;0.37;60.82
59487;BME280;45298;54.918;73.504;2023-05-01T00:34:12;100677.50;;;0.00;60.65
59487;BME280;45298;54.918;73.504;2023-05-01T00:36:41;100754.44;;;0.52;60.58
59487;BME280;45298;54.918;73.504;2023-05-01T00:39:11;100745.72;;;0.53;60.53
59487;BME280;45298;54.918;73.504;2023-05-01T00:41:40;100751.72;;;0.65;60.34
59487;BME280;45298;54.918;73.504;2023-05-01T00:44:09;100682.41;;;0.29;60.35
59487;BME280;45298;54.918;73.504;2023-05-01T00:46:37;100740.34;;;0.69;60.19
59487;BME280;45298;54.918;73.504;2023-05-01T00:49:06;100681.44;;;0.43;60.27
59487;BME280;45298;54.918;73.504;2023-05-01T00:51:35;100741.09;;;0.83;60.14
59487;BME280;45298;54.918;73.504;2023-05-01T00:54:04;100755.69;;;0.98;60.12
59487;BME280;45298;54.918;73.504;2023-05-01T00:56:33;100767.84;;;1.07;59.91
59487;BME280;45298;54.918;73.504;2023-05-01T00:59:02;100735.72;;;0.97;60.01
59487;BME280;45298;54.918;73.504;2023-05-01T01:01:32;100764.25;;;1.16;59.81
59487;BME280;45298;54.918;73.504;2023-05-01T01:04:01;100757.25;;;1.16;59.75
59487;BME280;45298;54.918;73.504;2023-05-01T01:12:17;100751.88;;;1.30;59.43
59487;BME280;45298;54.918;73.504;2023-05-01T01:17:47;100768.91;;;1.61;59.04
59487;BME280;45298;54.918;73.504;2023-05-01T01:20:43;100691.09;;;2.79;55.28
59487;BME280;45298;54.918;73.504;2023-05-01T01:26:11;100785.31;;;5.48;49.58
59487;BME280;45298;54.918;73.504;2023-05-01T01:35:15;100706.44;;;7.06;44.79
59487;BME280;45298;54.918;73.504;2023-05-01T01:40:24;100772.28;;;8.25;43.50
59487;BME280;45298;54.918;73.504;2023-05-01T01:43:06;100767.75;;;8.51;41.93
59487;BME280;45298;54.918;73.504;2023-05-01T01:45:42;100784.41;;;8.73;41.75
59487;BME280;45298;54.918;73.504;2023-05-01T01:48:24;100782.38;;;8.59;42.25
59487;BME280;45298;54.918;73.504;2023-05-01T01:50:56;100772.53;;;8.63;41.60
59487;BME280;45298;54.918;73.504;2023-05-01T01:53:27;100785.63;;;8.87;41.04
59487;BME280;45298;54.918;73.504;2023-05-01T01:55:59;100695.78;;;8.22;41.06
59487;BME280;45298;54.918;73.504;2023-05-01T01:58:31;100755.66;;;8.66;41.54
59487;BME280;45298;54.918;73.504;2023-05-01T02:01:03;100748.59;;;8.66;40.89
59487;BME280;45298;54.918;73.504;2023-05-01T02:03:33;100761.34;;;8.77;40.81
59487;BME280;45298;54.918;73.504;2023-05-01T02:06:05;100770.47;;;8.70;41.04
59487;BME280;45298;54.918;73.504;2023-05-01T02:08:36;100692.41;;;7.96;41.25
59487;BME280;45298;54.918;73.504;2023-05-01T02:11:07;100764.50;;;8.22;41.62
59487;BME280;45298;54.918;73.504;2023-05-01T02:13:38;100754.47;;;8.30;41.76
59487;BME280;45298;54.918;73.504;2023-05-01T02:16:08;100709.25;;;8.15;41.08
59487;BME280;45298;54.918;73.504;2023-05-01T02:18:39;100775.09;;;8.42;41.42
59487;BME280;45298;54.918;73.504;2023-05-01T02:21:10;100748.97;;;8.57;41.38
59487;BME280;45298;54.918;73.504;2023-05-01T02:23:39;100779.00;;;8.76;40.45
59487;BME280;45298;54.918;73.504;2023-05-01T02:26:13;100762.88;;;8.17;41.51
59487;BME280;45298;54.918;73.504;2023-05-01T02:28:44;100740.28;;;7.88;41.46
59487;BME280;45298;54.918;73.504;2023-05-01T02:31:13;100760.97;;;7.99;41.97
59487;BME280;45298;54.918;73.504;2023-05-01T02:33:42;100738.84;;;7.79;41.63
59487;BME280;45298;54.918;73.504;2023-05-01T02:36:11;100748.31;;;7.85;42.04
59487;BME280;45298;54.918;73.504;2023-05-01T02:38:41;100672.47;;;7.20;42.02
59487;BME280;45298;54.918;73.504;2023-05-01T02:41:11;100720.78;;;7.68;42.28
59487;BME280;45298;54.918;73.504;2023-05-01T02:43:44;100669.69;;;7.25;42.16
59487;BME280;45298;54.918;73.504;2023-05-01T02:46:15;100738.34;;;7.69;41.90
59487;BME280;45298;54.918;73.504;2023-05-01T02:48:47;100730.94;;;7.57;42.52
59487;BME280;45298;54.918;73.504;2023-05-01T02:51:17;100754.72;;;7.55;42.32
59487;BME280;45298;54.918;73.504;2023-05-01T02:53:47;100752.09;;;7.55;42.68
59487;BME280;45298;54.918;73.504;2023-05-01T02:56:20;100739.88;;;7.53;42.58
59487;BME280;45298;54.918;73.504;2023-05-01T02:58:50;100756.00;;;7.69;42.84
59487;BME280;45298;54.918;73.504;2023-05-01T03:01:18;100726.56;;;7.56;42.90
59487;BME280;45298;54.918;73.504;2023-05-01T03:03:48;100708.16;;;7.54;42.24
59487;BME280;45298;54.918;73.504;2023-05-01T03:06:17;100740.03;;;7.72;42.46
59487;BME280;45298;54.918;73.504;2023-05-01T03:08:46;100736.28;;;7.78;42.89
59487;BME280;45298;54.918;73.504;2023-05-01T03:11:15;100709.78;;;7.81;41.66
59487;BME280;45298;54.918;73.504;2023-05-01T03:13:44;100719.94;;;7.68;42.16
59487;BME280;45298;54.918;73.504;2023-05-01T03:16:15;100725.16;;;7.69;41.63
59487;BME280;45298;54.918;73.504;2023-05-01T03:18:46;100718.97;;;7.70;41.45
59487;BME280;45298;54.918;73.504;2023-05-01T03:21:16;100727.81;;;7.92;41.60
59487;BME280;45298;54.918;73.504;2023-05-01T03:23:45;100718.09;;;8.14;40.82
59487;BME280;45298;54.918;73.504;2023-05-01T03:26:14;100724.59;;;8.28;41.03
59487;BME280;45298;54.918;73.504;2023-05-01T03:28:43;100679.88;;;8.01;41.12
59487;BME280;45298;54.918;73.504;2023-05-01T03:31:12;100737.81;;;8.28;41.01
59487;BME280;45298;54.918;73.504;2023-05-01T03:33:41;100693.78;;;8.06;41.13
59487;BME280;45298;54.918;73.504;2023-05-01T03:36:10;100728.19;;;8.47;40.87
59487;BME280;45298;54.918;73.504;2023-05-01T03:38:39;100736.13;;;8.47;40.49
59487;BME280;45298;54.918;73.504;2023-05-01T03:41:08;100720.91;;;8.32;40.75
59487;BME280;45298;54.918;73.504;2023-05-01T03:43:55;100732.69;;;8.45;39.63
59487;BME280;45298;54.918;73.504;2023-05-01T03:46:32;100653.72;;;7.95;40.62
59487;BME280;45298;54.918;73.504;2023-05-01T03:49:02;100734.19;;;8.53;40.19
59487;BME280;45298;54.918;73.504;2023-05-01T03:51:37;100650.59;;;8.07;40.00
59487;BME280;45298;54.918;73.504;2023-05-01T03:54:06;100700.31;;;8.61;40.12
59487;BME280;45298;54.918;73.504;2023-05-01T03:56:50;100701.25;;;8.81;39.18
59487;BME280;45298;54.918;73.504;2023-05-01T03:59:19;100708.66;;;9.12;38.86
59487;BME280;45298;54.918;73.504;2023-05-01T04:01:49;100701.16;;;9.22;38.62
59487;BME280;45298;54.918;73.504;2023-05-01T04:04:18;100691.41;;;9.22;37.85
59487;BME280;45298;54.918;73.504;2023-05-01T04:06:53;100676.69;;;9.17;38.00
59487;BME280;45298;54.918;73.504;2023-05-01T04:09:23;100709.44;;;9.33;37.23
59487;BME280;45298;54.918;73.504;2023-05-01T04:11:52;100680.59;;;8.89;38.17
59487;BME280;45298;54.918;73.504;2023-05-01T04:14:20;100682.34;;;8.69;37.82
59487;BME280;45298;54.918;73.504;2023-05-01T04:16:49;100693.78;;;8.70;37.60
59487;BME280;45298;54.918;73.504;2023-05-01T04:19:18;100711.31;;;8.72;37.61
59487;BME280;45298;54.918;73.504;2023-05-01T04:21:54;100703.63;;;8.66;37.29
59487;BME280;45298;54.918;73.504;2023-05-01T04:24:22;100684.44;;;8.82;38.57
59487;BME280;45298;54.918;73.504;2023-05-01T04:26:51;100693.09;;;9.25;37.12
59487;BME280;45298;54.918;73.504;2023-05-01T04:29:20;100663.16;;;9.42;37.07
59487;BME280;45298;54.918;73.504;2023-05-01T04:31:49;100672.81;;;9.62;36.07
59487;BME280;45298;54.918;73.504;2023-05-01T04:34:19;100625.34;;;9.21;35.83
59487;BME280;45298;54.918;73.504;2023-05-01T04:36:48;100693.50;;;9.54;35.58
59487;BME280;45298;54.918;73.504;2023-05-01T04:39:17;100690.00;;;9.53;35.19
59487;BME280;45298;54.918;73.504;2023-05-01T04:41:45;100608.38;;;9.06;34.62
59487;BME280;45298;54.918;73.504;2023-05-01T04:44:15;100667.81;;;9.56;35.48
59487;BME280;45298;54.918;73.504;2023-05-01T04:46:44;100678.66;;;9.69;34.86
59487;BME280;45298;54.918;73.504;2023-05-01T04:49:13;100661.19;;;9.84;34.71
59487;BME280;45298;54.918;73.504;2023-05-01T04:51:42;100679.91;;;9.98;33.48
59487;BME280;45298;54.918;73.504;2023-05-01T04:54:13;100619.03;;;9.43;33.17
59487;BME280;45298;54.918;73.504;2023-05-01T04:56:43;100672.69;;;9.65;33.90
59487;BME280;45298;54.918;73.504;2023-05-01T04:59:12;100679.59;;;9.87;33.52
59487;BME280;45298;54.918;73.504;2023-05-01T05:01:40;100685.84;;;10.04;33.21
59487;BME280;45298;54.918;73.504;2023-05-01T05:04:09;100674.59;;;9.98;33.75
59487;BME280;45298;54.918;73.504;2023-05-01T05:06:38;100650.31;;;10.25;32.65
59487;BME280;45298;54.918;73.504;2023-05-01T05:09:14;100672.34;;;10.61;32.69
59487;BME280;45298;54.918;73.504;2023-05-01T05:11:46;100651.50;;;10.71;32.08
59487;BME280;45298;54.918;73.504;2023-05-01T05:14:20;100654.94;;;10.73;31.61
59487;BME280;45298;54.918;73.504;2023-05-01T05:16:50;100662.47;;;10.65;31.62
59487;BME280;45298;54.918;73.504;2023-05-01T05:19:19;100664.94;;;10.50;30.94
59487;BME280;45298;54.918;73.504;2023-05-01T05:21:48;100665.97;;;10.65;30.30
59487;BME280;45298;54.918;73.504;2023-05-01T05:24:16;100636.91;;;10.46;30.78
59487;BME280;45298;54.918;73.504;2023-05-01T05:26:47;100640.63;;;10.60;30.83
59487;BME280;45298;54.918;73.504;2023-05-01T05:29:16;100619.00;;;10.67;30.84
59487;BME280;45298;54.918;73.504;2023-05-01T05:31:45;100636.44;;;11.05;30.08
59487;BME280;45298;54.918;73.504;2023-05-01T05:34:14;100623.94;;;11.07;29.89
59487;BME280;45298;54.918;73.504;2023-05-01T05:36:46;100641.00;;;11.35;29.69
59487;BME280;45298;54.918;73.504;2023-05-01T05:39:16;100630.72;;;11.13;29.94
59487;BME280;45298;54.918;73.504;2023-05-01T05:41:46;100627.97;;;11.14;29.84
59487;BME280;45298;54.918;73.504;2023-05-01T05:44:18;100631.22;;;11.52;30.14
59487;BME280;45298;54.918;73.504;2023-05-01T05:46:48;100640.28;;;11.63;28.90
59487;BME280;45298;54.918;73.504;2023-05-01T05:49:26;100618.09;;;11.64;28.75
59487;BME280;45298;54.918;73.504;2023-05-01T05:51:55;100614.50;;;11.66;28.72
59487;BME280;45298;54.918;73.504;2023-05-01T05:54:24;100605.41;;;11.54;27.92
59487;BME280;45298;54.918;73.504;2023-05-01T05:56:53;100559.09;;;11.43;27.59
59487;BME280;45298;54.918;73.504;2023-05-01T05:59:22;100585.28;;;11.49;28.22
59487;BME280;45298;54.918;73.504;2023-05-01T06:01:53;100585.75;;;11.26;27.38
59487;BME280;45298;54.918;73.504;2023-05-01T06:04:23;100582.22;;;11.41;27.20
59487;BME280;45298;54.918;73.504;2023-05-01T06:06:55;100597.94;;;11.60;26.99
59487;BME280;45298;54.918;73.504;2023-05-01T06:09:25;100590.47;;;11.37;27.33
59487;BME280;45298;54.918;73.504;2023-05-01T06:11:54;100581.84;;;11.47;27.19
59487;BME280;45298;54.918;73.504;2023-05-01T06:14:22;100606.97;;;11.42;27.28
59487;BME280;45298;54.918;73.504;2023-05-01T06:16:51;100592.69;;;11.44;27.15
59487;BME280;45298;54.918;73.504;2023-05-01T06:19:20;100589.47;;;11.70;26.72
59487;BME280;45298;54.918;73.504;2023-05-01T06:21:54;100618.84;;;11.83;26.11
59487;BME280;45298;54.918;73.504;2023-05-01T06:24:23;100608.09;;;12.00;26.56
59487;BME280;45298;54.918;73.504;2023-05-01T06:26:55;100606.97;;;12.04;25.88
59487;BME280;45298;54.918;73.504;2023-05-01T06:29:28;100581.81;;;11.79;25.84
59487;BME280;45298;54.918;73.504;2023-05-01T06:31:56;100605.38;;;11.86;25.77
59487;BME280;45298;54.918;73.504;2023-05-01T06:34:25;100605.75;;;11.94;26.10
59487;BME280;45298;54.918;73.504;2023-05-01T06:36:55;100580.41;;;11.88;26.23
59487;BME280;45298;54.918;73.504;2023-05-01T06:39:24;100599.00;;;12.04;26.05
59487;BME280;45298;54.918;73.504;2023-05-01T06:41:53;100609.72;;;11.87;25.39
59487;BME280;45298;54.918;73.504;2023-05-01T06:44:31;100595.22;;;11.62;25.29
59487;BME280;45298;54.918;73.504;2023-05-01T06:47:01;100610.28;;;11.77;25.80
59487;BME280;45298;54.918;73.504;2023-05-01T06:49:30;100587.91;;;11.96;26.26
59487;BME280;45298;54.918;73.504;2023-05-01T06:52:00;100592.44;;;11.79;26.23
59487;BME280;45298;54.918;73.504;2023-05-01T06:54:32;100616.22;;;12.28;25.83
59487;BME280;45298;54.918;73.504;2023-05-01T06:57:01;100598.47;;;12.28;26.13
59487;BME280;45298;54.918;73.504;2023-05-01T06:59:29;100590.00;;;12.36;25.35
59487;BME280;45298;54.918;73.504;2023-05-01T07:01:58;100578.72;;;12.32;25.53
59487;BME280;45298;54.918;73.504;2023-05-01T07:04:27;100584.97;;;12.31;24.95
59487;BME280;45298;54.918;73.504;2023-05-01T07:06:56;100575.31;;;12.59;25.52
59487;BME280;45298;54.918;73.504;2023-05-01T07:09:25;100581.97;;;12.81;25.13
59487;BME280;45298;54.918;73.504;2023-05-01T07:11:53;100608.16;;;12.87;24.72
59487;BME280;45298;54.918;73.504;2023-05-01T07:14:24;100532.72;;;12.59;24.15
59487;BME280;45298;54.918;73.504;2023-05-01T07:16:53;100503.28;;;12.48;24.51
59487;BME280;45298;54.918;73.504;2023-05-01T07:19:22;100576.63;;;12.66;24.63
59487;BME280;45298;54.918;73.504;2023-05-01T07:21:51;100573.50;;;12.45;25.13
59487;BME280;45298;54.918;73.504;2023-05-01T07:24:21;100579.88;;;12.43;24.26
59487;BME280;45298;54.918;73.504;2023-05-01T07:26:50;100597.06;;;12.51;24.87
59487;BME280;45298;54.918;73.504;2023-05-01T07:29:19;100561.91;;;12.32;25.29
59487;BME280;45298;54.918;73.504;2023-05-01T07:31:48;100587.66;;;12.75;25.30
59487;BME280;45298;54.918;73.504;2023-05-01T07:34:17;100589.34;;;12.90;25.22
59487;BME280;45298;54.918;73.504;2023-05-01T07:36:46;100590.59;;;12.84;25.03
59487;BME280;45298;54.918;73.504;2023-05-01T07:39:15;100588.81;;;12.56;25.68
59487;BME280;45298;54.918;73.504;2023-05-01T07:41:45;100596.13;;;12.67;25.73
59487;BME280;45298;54.918;73.504;2023-05-01T07:44:14;100611.34;;;12.94;25.49
59487;BME280;45298;54.918;73.504;2023-05-01T07:46:44;100573.56;;;12.87;25.51
59487;BME280;45298;54.918;73.504;2023-05-01T07:49:13;100581.31;;;13.05;25.41
59487;BME280;45298;54.918;73.504;2023-05-01T07:51:41;100587.53;;;13.05;25.16
59487;BME280;45298;54.918;73.504;2023-05-01T07:54:12;100581.78;;;12.84;25.02
59487;BME280;45298;54.918;73.504;2023-05-01T07:56:43;100579.28;;;12.66;24.58
59487;BME280;45298;54.918;73.504;2023-05-01T07:59:16;100580.63;;;12.59;25.51
59487;BME280;45298;54.918;73.504;2023-05-01T08:01:45;100603.06;;;12.84;25.53
59487;BME280;45298;54.918;73.504;2023-05-01T08:04:14;100578.84;;;12.74;26.38
59487;BME280;45298;54.918;73.504;2023-05-01T08:06:44;100481.88;;;11.91;25.97
59487;BME280;45298;54.918;73.504;2023-05-01T08:09:15;100596.00;;;12.68;25.77
59487;BME280;45298;54.918;73.504;2023-05-01T08:11:44;100592.50;;;12.82;26.15
59487;BME280;45298;54.918;73.504;2023-05-01T08:14:13;100563.31;;;12.81;25.69
59487;BME280;45298;54.918;73.504;2023-05-01T08:16:44;100594.41;;;12.80;25.72
59487;BME280;45298;54.918;73.504;2023-05-01T08:19:13;100586.31;;;12.96;24.93
59487;BME280;45298;54.918;73.504;2023-05-01T08:21:42;100599.03;;;13.06;25.41
59487;BME280;45298;54.918;73.504;2023-05-01T08:24:11;100589.31;;;13.19;25.02
59487;BME280;45298;54.918;73.504;2023-05-01T08:26:40;100594.09;;;12.99;25.08
59487;BME280;45298;54.918;73.504;2023-05-01T08:29:09;100577.59;;;12.80;25.36
59487;BME280;45298;54.918;73.504;2023-05-01T08:31:38;100558.53;;;12.86;25.34
59487;BME280;45298;54.918;73.504;2023-05-01T08:34:07;100563.88;;;12.86;25.24
59487;BME280;45298;54.918;73.504;2023-05-01T08:36:36;100565.56;;;13.02;24.62
59487;BME280;45298;54.918;73.504;2023-05-01T08:39:06;100586.38;;;12.95;25.16
59487;BME280;45298;54.918;73.504;2023-05-01T08:41:36;100526.84;;;12.39;25.03
59487;BME280;45298;54.918;73.504;2023-05-01T08:44:09;100557.72;;;12.42;24.53
59487;BME280;45298;54.918;73.504;2023-05-01T08:47:38;100571.22;;;12.68;25.60
59487;BME280;45298;54.918;73.504;2023-05-01T08:49:49;100567.31;;;12.74;25.79
59487;BME280;45298;54.918;73.504;2023-05-01T08:52:21;100567.75;;;12.95;24.90
59487;BME280;45298;54.918;73.504;2023-05-01T08:54:51;100556.63;;;13.03;25.17
59487;BME280;45298;54.918;73.504;2023-05-01T08:57:27;100541.69;;;13.27;24.81
59487;BME280;45298;54.918;73.504;2023-05-01T08:59:58;100554.31;;;13.11;23.47
59487;BME280;45298;54.918;73.504;2023-05-01T09:02:28;100569.75;;;12.91;24.22
59487;BME280;45298;54.918;73.504;2023-05-01T09:05:00;100576.59;;;12.95;23.92
59487;BME280;45298;54.918;73.504;2023-05-01T09:07:31;100563.59;;;12.91;23.13
59487;BME280;45298;54.918;73.504;2023-05-01T09:10:00;100581.94;;;12.95;23.96
59487;BME280;45298;54.918;73.504;2023-05-01T09:12:31;100564.44;;;12.91;23.90
59487;BME280;45298;54.918;73.504;2023-05-01T09:15:03;100571.28;;;12.95;24.47
59487;BME280;45298;54.918;73.504;2023-05-01T09:17:33;100568.06;;;12.76;24.03
59487;BME280;45298;54.918;73.504;2023-05-01T09:20:04;100577.97;;;12.74;24.46
59487;BME280;45298;54.918;73.504;2023-05-01T09:22:35;100517.34;;;12.21;24.37
59487;BME280;45298;54.918;73.504;2023-05-01T09:25:06;100563.69;;;12.46;23.62
59487;BME280;45298;54.918;73.504;2023-05-01T09:27:36;100577.78;;;12.62;24.39
59487;BME280;45298;54.918;73.504;2023-05-01T09:30:06;100562.56;;;12.79;24.35
59487;BME280;45298;54.918;73.504;2023-05-01T09:32:36;100560.38;;;12.85;23.70
59487;BME280;45298;54.918;73.504;2023-05-01T09:35:12;100554.00;;;12.74;22.76
59487;BME280;45298;54.918;73.504;2023-05-01T09:37:42;100558.66;;;12.55;22.99
59487;BME280;45298;54.918;73.504;2023-05-01T09:40:17;100589.94;;;12.52;23.21
59487;BME280;45298;54.918;73.504;2023-05-01T09:42:50;100567.13;;;12.33;22.88
59487;BME280;45298;54.918;73.504;2023-05-01T09:45:20;100548.88;;;12.27;22.90
59487;BME280;45298;54.918;73.504;2023-05-01T09:47:50;100569.00;;;12.17;23.25
59487;BME280;45298;54.918;73.504;2023-05-01T09:50:33;100511.75;;;11.81;23.30
59487;BME280;45298;54.918;73.504;2023-05-01T09:53:04;100580.69;;;12.14;23.35
59487;BME280;45298;54.918;73.504;2023-05-01T09:55:34;100573.66;;;12.13;24.25
59487;BME280;45298;54.918;73.504;2023-05-01T09:58:03;100585.44;;;12.23;24.10
59487;BME280;45298;54.918;73.504;2023-05-01T10:00:46;100574.69;;;12.11;24.61
59487;BME280;45298;54.918;73.504;2023-05-01T10:03:20;100584.78;;;12.20;25.00
59487;BME280;45298;54.918;73.504;2023-05-01T10:05:49;100580.78;;;12.27;24.21
59487;BME280;45298;54.918;73.504;2023-05-01T10:08:18;100576.03;;;12.18;23.63
59487;BME280;45298;54.918;73.504;2023-05-01T10:11:02;100591.03;;;12.04;23.69
59487;BME280;45298;54.918;73.504;2023-05-01T10:13:35;100584.00;;;12.03;24.33
59487;BME280;45298;54.918;73.504;2023-05-01T10:16:05;100592.16;;;12.15;23.93
59487;BME280;45298;54.918;73.504;2023-05-01T10:18:36;100601.50;;;12.22;25.02
59487;BME280;45298;54.918;73.504;2023-05-01T10:21:06;100593.41;;;12.09;24.51
59487;BME280;45298;54.918;73.504;2023-05-01T10:23:37;100620.38;;;12.17;24.50
59487;BME280;45298;54.918;73.504;2023-05-01T10:26:07;100604.31;;;12.04;24.40
59487;BME280;45298;54.918;73.504;2023-05-01T10:28:36;100601.19;;;11.82;24.83
59487;BME280;45298;54.918;73.504;2023-05-01T10:31:10;100592.19;;;11.68;24.85
59487;BME280;45298;54.918;73.504;2023-05-01T10:33:42;100609.78;;;11.55;25.34
59487;BME280;45298;54.918;73.504;2023-05-01T10:36:21;100590.25;;;11.56;25.15
59487;BME280;45298;54.918;73.504;2023-05-01T10:38:53;100540.25;;;11.32;25.09
59487;BME280;45298;54.918;73.504;2023-05-01T10:44:27;100599.94;;;11.57;25.28
59487;BME280;45298;54.918;73.504;2023-05-01T10:46:57;100629.38;;;11.68;24.84
59487;BME280;45298;54.918;73.504;2023-05-01T10:55:41;100604.59;;;11.37;25.33
59487;BME280;45298;54.918;73.504;2023-05-01T10:58:13;100624.19;;;11.51;25.51
59487;BME280;45298;54.918;73.504;2023-05-01T11:00:42;100568.53;;;11.01;25.06
59487;BME280;45298;54.918;73.504;2023-05-01T11:08:37;100635.34;;;11.41;25.20
59487;BME280;45298;54.918;73.504;2023-05-01T11:13:58;100637.91;;;11.43;25.84
59487;BME280;45298;54.918;73.504;2023-05-01T11:19:08;100635.00;;;11.31;25.86
59487;BME280;45298;54.918;73.504;2023-05-01T11:21:38;100632.41;;;11.30;26.25
59487;BME280;45298;54.918;73.504;2023-05-01T11:24:08;100623.44;;;11.16;26.35
59487;BME280;45298;54.918;73.504;2023-05-01T11:26:38;100630.91;;;11.26;26.54
59487;BME280;45298;54.918;73.504;2023-05-01T11:29:09;100633.34;;;11.29;26.76
59487;BME280;45298;54.918;73.504;2023-05-01T11:31:38;100648.00;;;11.36;26.58
59487;BME280;45298;54.918;73.504;2023-05-01T11:34:07;100617.00;;;11.21;26.37
59487;BME280;45298;54.918;73.504;2023-05-01T11:36:47;100652.72;;;11.31;26.81
59487;BME280;45298;54.918;73.504;2023-05-01T11:39:18;100637.56;;;11.17;26.74
59487;BME280;45298;54.918;73.504;2023-05-01T11:41:47;100572.97;;;10.84;26.74
59487;BME280;45298;54.918;73.504;2023-05-01T11:44:17;100620.94;;;11.13;25.79
59487;BME280;45298;54.918;73.504;2023-05-01T11:46:55;100612.34;;;11.08;26.30
59487;BME280;45298;54.918;73.504;2023-05-01T11:49:28;100638.66;;;11.29;26.61
59487;BME280;45298;54.918;73.504;2023-05-01T11:51:58;100646.22;;;11.21;26.47
59487;BME280;45298;54.918;73.504;2023-05-01T11:54:27;100634.44;;;10.93;26.33
59487;BME280;45298;54.918;73.504;2023-05-01T11:57:00;100651.59;;;11.03;26.06
59487;BME280;45298;54.918;73.504;2023-05-01T11:59:29;100649.53;;;10.92;25.94
59487;BME280;45298;54.918;73.504;2023-05-01T12:01:58;100630.44;;;10.85;25.45
59487;BME280;45298;54.918;73.504;2023-05-01T12:04:27;100665.81;;;11.02;25.62
59487;BME280;45298;54.918;73.504;2023-05-01T12:06:59;100655.56;;;10.78;24.78
59487;BME280;45298;54.918;73.504;2023-05-01T12:09:28;100666.91;;;10.64;24.95
59487;BME280;45298;54.918;73.504;2023-05-01T12:11:58;100669.78;;;10.60;25.52
59487;BME280;45298;54.918;73.504;2023-05-01T12:14:29;100656.25;;;10.48;25.67
59487;BME280;45298;54.918;73.504;2023-05-01T12:16:59;100630.97;;;10.23;25.68
59487;BME280;45298;54.918;73.504;2023-05-01T12:19:29;100676.59;;;10.48;26.17
59487;BME280;45298;54.918;73.504;2023-05-01T12:22:06;100670.84;;;10.39;26.18
59487;BME280;45298;54.918;73.504;2023-05-01T12:24:36;100672.47;;;10.42;27.13
59487;BME280;45298;54.918;73.504;2023-05-01T12:27:06;100677.78;;;10.42;26.46
59487;BME280;45298;54.918;73.504;2023-05-01T12:29:40;100657.16;;;10.30;26.93
59487;BME280;45298;54.918;73.504;2023-05-01T12:32:09;100670.03;;;10.37;27.50
59487;BME280;45298;54.918;73.504;2023-05-01T12:34:39;100677.09;;;10.38;27.30
59487;BME280;45298;54.918;73.504;2023-05-01T12:37:10;100664.63;;;10.21;27.62
59487;BME280;45298;54.918;73.504;2023-05-01T12:39:39;100699.25;;;10.36;27.94
59487;BME280;45298;54.918;73.504;2023-05-01T12:42:13;100697.28;;;10.41;27.98
59487;BME280;45298;54.918;73.504;2023-05-01T12:44:42;100691.66;;;10.47;27.65
59487;BME280;45298;54.918;73.504;2023-05-01T12:47:12;100661.50;;;10.31;28.24
59487;BME280;45298;54.918;73.504;2023-05-01T12:49:42;100704.28;;;10.42;27.56
59487;BME280;45298;54.918;73.504;2023-05-01T12:52:11;100669.41;;;10.15;28.26
59487;BME280;45298;54.918;73.504;2023-05-01T12:54:42;100619.09;;;9.78;28.30
59487;BME280;45298;54.918;73.504;2023-05-01T12:57:13;100690.06;;;10.08;28.13
59487;BME280;45298;54.918;73.504;2023-05-01T12:59:45;100628.56;;;9.64;28.04
59487;BME280;45298;54.918;73.504;2023-05-01T13:02:16;100711.56;;;10.02;27.94
59487;BME280;45298;54.918;73.504;2023-05-01T13:04:46;100689.06;;;9.91;28.40
59487;BME280;45298;54.918;73.504;2023-05-01T13:07:19;100683.00;;;9.89;28.75
59487;BME280;45298;54.918;73.504;2023-05-01T13:09:52;100702.16;;;9.94;28.38
59487;BME280;45298;54.918;73.504;2023-05-01T13:12:23;100700.13;;;9.82;28.96
59487;BME280;45298;54.918;73.504;2023-05-01T13:14:55;100699.16;;;9.65;28.94
59487;BME280;45298;54.918;73.504;2023-05-01T13:17:31;100721.19;;;9.66;28.85
59487;BME280;45298;54.918;73.504;2023-05-01T13:20:04;100700.22;;;9.42;28.82
59487;BME280;45298;54.918;73.504;2023-05-01T13:22:34;100713.78;;;9.36;29.26
59487;BME280;45298;54.918;73.504;2023-05-01T13:25:14;100729.88;;;9.31;29.36
59487;BME280;45298;54.918;73.504;2023-05-01T13:27:51;100658.13;;;8.79;30.17
59487;BME280;45298;54.918;73.504;2023-05-01T13:30:30;100738.16;;;9.03;29.63
59487;BME280;45298;54.918;73.504;2023-05-01T13:33:00;100739.06;;;9.03;29.93
59487;BME280;45298;54.918;73.504;2023-05-01T13:35:33;100743.34;;;8.85;29.68
59487;BME280;45298;54.918;73.504;2023-05-01T13:38:07;100725.38;;;8.73;29.92
59487;BME280;45298;54.918;73.504;2023-05-01T13:40:40;100757.97;;;8.73;29.56
59487;BME280;45298;54.918;73.504;2023-05-01T13:43:13;100742.88;;;8.55;29.70